createdAt,value
2023-01-26T00:00:07.836Z,83.37
2023-01-26T00:02:36.409Z,83.27
2023-01-26T00:05:05.174Z,83.28
2023-01-26T00:07:33.627Z,83.10
2023-01-26T00:10:07.046Z,82.99
2023-01-26T00:12:35.632Z,83.25
2023-01-26T00:15:20.378Z,83.25
2023-01-26T00:17:51.771Z,83.22
2023-01-26T00:20:20.326Z,83.07
2023-01-26T00:22:51.108Z,83.04
2023-01-26T00:25:20.504Z,83.23
2023-01-26T00:27:50.537Z,82.92
2023-01-26T00:30:21.623Z,83.21
2023-01-26T00:32:49.987Z,82.94
2023-01-26T00:35:18.557Z,83.24
2023-01-26T00:37:46.946Z,83.39
2023-01-26T00:40:16.571Z,83.37
2023-01-26T00:42:44.876Z,83.60
2023-01-26T00:45:13.546Z,83.78
2023-01-26T00:47:44.796Z,83.64
2023-01-26T00:50:14.200Z,83.63
2023-01-26T00:52:42.936Z,83.65
2023-01-26T00:55:11.350Z,83.76
2023-01-26T00:57:39.799Z,83.70
2023-01-26T01:00:11.162Z,83.57
2023-01-26T01:02:39.699Z,83.66
2023-01-26T01:05:10.491Z,83.69
2023-01-26T01:07:38.999Z,83.63
2023-01-26T01:10:08.453Z,83.87
2023-01-26T01:12:36.951Z,83.71
2023-01-26T01:15:05.993Z,83.50
2023-01-26T01:17:36.409Z,83.28
2023-01-26T01:20:05.966Z,83.14
2023-01-26T01:22:36.911Z,83.46
2023-01-26T01:25:06.292Z,83.59
2023-01-26T01:27:34.649Z,83.65
2023-01-26T01:30:07.581Z,83.58
2023-01-26T01:32:36.988Z,83.80
2023-01-26T01:35:05.801Z,83.71
2023-01-26T01:37:36.823Z,83.87
2023-01-26T01:40:05.803Z,83.81
2023-01-26T01:42:34.991Z,83.54
2023-01-26T01:45:38.861Z,83.25
2023-01-26T01:48:12.610Z,83.20
2023-01-26T01:50:42.619Z,83.35
2023-01-26T01:53:19.659Z,83.63
2023-01-26T01:55:48.322Z,83.35
2023-01-26T01:58:16.732Z,83.23
2023-01-26T02:00:45.111Z,83.54
2023-01-26T02:03:14.889Z,83.58
2023-01-26T02:05:52.677Z,83.66
2023-01-26T02:08:25.286Z,83.64
2023-01-26T02:10:56.982Z,83.52
2023-01-26T02:13:26.915Z,83.41
2023-01-26T02:15:55.843Z,83.41
2023-01-26T02:18:24.227Z,83.76
2023-01-26T02:20:55.580Z,83.77
2023-01-26T02:23:37.318Z,83.74
2023-01-26T02:26:13.882Z,83.81
2023-01-26T02:28:43.936Z,84.06
2023-01-26T02:31:13.632Z,83.88
2023-01-26T02:33:42.891Z,83.94
2023-01-26T02:36:19.389Z,83.76
2023-01-26T02:38:54.388Z,83.79
2023-01-26T02:41:41.573Z,83.46
2023-01-26T02:44:12.730Z,84.01
2023-01-26T02:46:41.276Z,83.89
2023-01-26T02:49:41.672Z,83.66
2023-01-26T02:52:10.078Z,84.04
2023-01-26T02:54:55.936Z,83.72
2023-01-26T02:57:26.007Z,84.01
2023-01-26T02:59:54.888Z,83.96
2023-01-26T03:02:23.741Z,83.94
2023-01-26T03:04:52.143Z,83.68
2023-01-26T03:07:20.667Z,83.99
2023-01-26T03:09:48.945Z,83.90
2023-01-26T03:12:17.283Z,83.98
2023-01-26T03:15:07.911Z,83.61
2023-01-26T03:17:36.239Z,83.67
2023-01-26T03:20:22.612Z,83.52
2023-01-26T03:23:08.499Z,83.90
2023-01-26T03:25:55.321Z,83.59
2023-01-26T03:28:23.819Z,83.38
2023-01-26T03:30:56.807Z,83.35
2023-01-26T03:33:25.215Z,83.63
2023-01-26T03:35:55.020Z,83.52
2023-01-26T03:38:23.392Z,84.11
2023-01-26T03:41:09.341Z,84.03
2023-01-26T03:43:55.249Z,83.93
2023-01-26T03:46:42.607Z,83.71
2023-01-26T03:49:28.591Z,83.69
2023-01-26T03:52:14.508Z,84.08
2023-01-26T03:55:00.441Z,84.17
2023-01-26T03:57:30.325Z,83.94
2023-01-26T03:59:58.678Z,84.07
2023-01-26T04:02:45.968Z,83.86
2023-01-26T04:05:31.766Z,83.73
2023-01-26T04:08:21.792Z,84.26
2023-01-26T04:11:00.122Z,84.10
2023-01-26T04:13:46.095Z,83.73
2023-01-26T04:16:32.168Z,84.06
2023-01-26T04:19:19.253Z,84.10
2023-01-26T04:21:47.584Z,83.69
2023-01-26T04:24:17.307Z,83.91
2023-01-26T04:26:45.904Z,83.87
2023-01-26T04:29:15.725Z,83.89
2023-01-26T04:31:44.495Z,83.96
2023-01-26T04:34:16.558Z,83.99
2023-01-26T04:36:45.259Z,84.00
2023-01-26T04:39:13.603Z,83.96
2023-01-26T04:41:42.572Z,84.29
2023-01-26T04:44:11.032Z,84.02
2023-01-26T04:46:39.811Z,83.92
2023-01-26T04:49:08.192Z,83.95
2023-01-26T04:51:38.034Z,84.14
2023-01-26T04:54:06.493Z,83.99
2023-01-26T04:56:37.163Z,83.99
2023-01-26T04:59:07.444Z,83.89
2023-01-26T05:01:35.975Z,83.80
2023-01-26T05:04:06.516Z,83.75
2023-01-26T05:06:35.195Z,84.00
2023-01-26T05:09:05.552Z,83.97
2023-01-26T05:11:33.898Z,84.29
2023-01-26T05:14:02.239Z,84.00
2023-01-26T05:16:30.598Z,84.13
2023-01-26T05:18:59.171Z,84.04
2023-01-26T05:21:28.241Z,84.25
2023-01-26T05:23:56.767Z,84.10
2023-01-26T05:26:26.535Z,83.88
2023-01-26T05:28:54.995Z,84.20
2023-01-26T05:31:23.314Z,83.74
2023-01-26T05:33:51.715Z,83.57
2023-01-26T05:36:20.110Z,83.70
2023-01-26T05:38:48.475Z,83.37
2023-01-26T05:41:16.868Z,83.60
2023-01-26T05:43:46.595Z,83.65
2023-01-26T05:46:14.994Z,83.42
2023-01-26T05:48:43.536Z,83.35
2023-01-26T05:51:12.027Z,83.41
2023-01-26T05:53:40.383Z,83.26
2023-01-26T05:56:08.959Z,83.38
2023-01-26T05:58:37.371Z,83.37
2023-01-26T06:01:07.219Z,83.45
2023-01-26T06:03:35.571Z,83.46
2023-01-26T06:06:04.011Z,83.43
2023-01-26T06:08:32.313Z,83.20
2023-01-26T06:11:01.393Z,83.10
2023-01-26T06:13:30.458Z,83.09
2023-01-26T06:16:02.046Z,83.35
2023-01-26T06:18:31.699Z,83.57
2023-01-26T06:21:00.304Z,83.29
2023-01-26T06:23:28.805Z,83.33
2023-01-26T06:26:00.348Z,83.86
2023-01-26T06:28:28.984Z,83.88
2023-01-26T06:31:01.040Z,83.72
2023-01-26T06:33:30.909Z,83.92
2023-01-26T06:36:02.843Z,83.60
2023-01-26T06:38:31.269Z,83.56
2023-01-26T06:41:03.055Z,83.58
2023-01-26T06:43:31.804Z,83.26
2023-01-26T06:46:00.463Z,83.21
2023-01-26T06:48:31.794Z,82.97
2023-01-26T06:51:06.576Z,83.57
2023-01-26T06:53:38.032Z,83.09
2023-01-26T06:56:06.854Z,83.18
2023-01-26T06:58:35.227Z,83.21
2023-01-26T07:01:03.693Z,83.49
2023-01-26T07:03:33.535Z,83.38
2023-01-26T07:06:01.874Z,83.13
2023-01-26T07:08:30.378Z,83.08
2023-01-26T07:10:58.729Z,83.22
2023-01-26T07:13:27.079Z,82.82
2023-01-26T07:16:01.706Z,82.92
2023-01-26T07:18:30.225Z,83.28
2023-01-26T07:21:02.806Z,82.95
2023-01-26T07:23:32.588Z,83.07
2023-01-26T07:26:02.299Z,83.24
2023-01-26T07:28:30.751Z,83.70
2023-01-26T07:30:59.172Z,83.78
2023-01-26T07:33:27.637Z,83.72
2023-01-26T07:35:57.591Z,83.42
2023-01-26T07:38:28.306Z,83.77
2023-01-26T07:40:57.644Z,83.63
2023-01-26T07:43:26.004Z,83.25
2023-01-26T07:45:55.673Z,83.70
2023-01-26T07:48:25.479Z,83.74
2023-01-26T07:50:53.821Z,83.35
2023-01-26T07:53:22.972Z,83.43
2023-01-26T07:55:52.866Z,83.07
2023-01-26T07:58:21.382Z,83.00
2023-01-26T08:00:49.787Z,82.94
2023-01-26T08:03:18.236Z,83.19
2023-01-26T08:05:47.216Z,82.52
2023-01-26T08:08:15.863Z,82.59
2023-01-26T08:10:44.193Z,82.41
2023-01-26T08:13:15.641Z,82.39
2023-01-26T08:15:45.527Z,82.60
2023-01-26T08:18:13.871Z,82.42
2023-01-26T08:20:42.653Z,82.40
2023-01-26T08:23:11.047Z,82.49
2023-01-26T08:25:39.495Z,82.28
2023-01-26T08:28:07.917Z,82.43
2023-01-26T08:30:37.785Z,82.43
2023-01-26T08:33:06.825Z,82.37
2023-01-26T08:35:35.876Z,82.43
2023-01-26T08:38:04.357Z,82.47
2023-01-26T08:40:32.965Z,81.99
2023-01-26T08:43:02.962Z,82.47
2023-01-26T08:45:34.557Z,82.29
2023-01-26T08:48:04.944Z,81.89
2023-01-26T08:50:33.244Z,81.98
2023-01-26T08:53:01.611Z,81.95
2023-01-26T08:55:29.902Z,82.06
2023-01-26T08:57:58.255Z,82.03
2023-01-26T09:00:26.781Z,82.03
2023-01-26T09:03:00.136Z,82.33
2023-01-26T09:05:34.043Z,82.15
2023-01-26T09:08:02.477Z,82.33
2023-01-26T09:10:30.961Z,81.98
2023-01-26T09:13:00.033Z,81.83
2023-01-26T09:15:29.326Z,81.71
2023-01-26T09:18:00.680Z,81.87
2023-01-26T09:20:30.736Z,81.66
2023-01-26T09:22:59.281Z,81.77
2023-01-26T09:25:27.715Z,82.22
2023-01-26T09:27:56.222Z,81.67
2023-01-26T09:30:25.817Z,81.49
2023-01-26T09:32:54.546Z,81.56
2023-01-26T09:35:23.016Z,81.30
2023-01-26T09:37:52.764Z,81.49
2023-01-26T09:40:28.129Z,81.42
2023-01-26T09:43:09.215Z,81.15
2023-01-26T09:45:46.997Z,81.41
2023-01-26T09:48:30.413Z,81.36
2023-01-26T09:51:04.324Z,81.42
2023-01-26T09:53:46.741Z,81.50
2023-01-26T09:56:28.189Z,81.55
2023-01-26T09:59:14.203Z,81.30
2023-01-26T10:01:46.381Z,81.57
2023-01-26T10:04:29.745Z,81.61
2023-01-26T10:07:00.120Z,81.58
2023-01-26T10:09:35.659Z,81.74
2023-01-26T10:12:07.855Z,81.72
2023-01-26T10:14:40.931Z,82.06
2023-01-26T10:17:18.637Z,82.07
2023-01-26T10:19:52.036Z,81.97
2023-01-26T10:22:29.473Z,81.87
2023-01-26T10:25:01.348Z,81.81
2023-01-26T10:27:30.133Z,81.90
2023-01-26T10:29:58.601Z,81.84
2023-01-26T10:32:27.636Z,81.85
2023-01-26T10:34:56.268Z,82.02
2023-01-26T10:37:29.744Z,81.68
2023-01-26T10:40:01.798Z,81.69
2023-01-26T10:42:32.153Z,81.97
2023-01-26T10:45:02.730Z,81.76
2023-01-26T10:47:31.768Z,81.71
2023-01-26T10:50:22.442Z,81.48
2023-01-26T10:53:02.276Z,81.25
2023-01-26T10:55:33.484Z,81.50
2023-01-26T10:58:02.271Z,81.45
2023-01-26T11:00:33.304Z,81.09
2023-01-26T11:03:19.501Z,81.24
2023-01-26T11:06:07.249Z,81.18
2023-01-26T11:08:37.791Z,81.03
2023-01-26T11:11:22.368Z,81.46
2023-01-26T11:14:11.721Z,81.34
2023-01-26T11:16:40.280Z,81.00
2023-01-26T11:19:14.393Z,81.37
2023-01-26T11:21:48.350Z,80.98
2023-01-26T11:24:26.081Z,80.45
2023-01-26T11:27:22.758Z,80.63
2023-01-26T11:30:17.097Z,80.75
2023-01-26T11:32:56.212Z,80.62
2023-01-26T11:35:33.196Z,80.37
2023-01-26T11:38:16.988Z,80.06
2023-01-26T11:40:51.934Z,80.26
2023-01-26T11:43:37.254Z,79.75
2023-01-26T11:46:18.728Z,79.84
2023-01-26T11:48:58.758Z,80.03
2023-01-26T11:51:43.656Z,80.01
2023-01-26T11:54:29.467Z,79.56
2023-01-26T11:57:07.275Z,79.71
2023-01-26T11:59:41.992Z,79.45
2023-01-26T12:02:27.831Z,79.42
2023-01-26T12:04:58.891Z,79.85
2023-01-26T12:07:31.693Z,79.63
2023-01-26T12:10:03.643Z,80.04
2023-01-26T12:12:39.708Z,79.90
2023-01-26T12:15:14.441Z,79.51
2023-01-26T12:17:52.121Z,79.65
2023-01-26T12:20:30.544Z,79.81
2023-01-26T12:23:04.812Z,79.85
2023-01-26T12:25:36.794Z,79.83
2023-01-26T12:28:18.019Z,79.89
2023-01-26T12:30:55.116Z,80.15
2023-01-26T12:33:24.177Z,79.98
2023-01-26T12:36:20.635Z,80.23
2023-01-26T12:39:13.891Z,79.90
2023-01-26T12:42:10.786Z,79.98
2023-01-26T12:44:42.130Z,79.70
2023-01-26T12:47:19.510Z,79.53
2023-01-26T12:49:56.809Z,79.56
2023-01-26T12:52:31.191Z,79.47
2023-01-26T12:55:04.526Z,79.55
2023-01-26T12:57:39.380Z,79.56
2023-01-26T13:00:18.777Z,79.22
2023-01-26T13:02:51.333Z,79.25
2023-01-26T13:05:31.985Z,79.35
2023-01-26T13:08:36.633Z,79.12
2023-01-26T13:11:07.167Z,79.01
2023-01-26T13:13:52.865Z,79.22
2023-01-26T13:16:36.422Z,79.00
2023-01-26T13:19:06.438Z,79.12
2023-01-26T13:21:52.928Z,79.33
2023-01-26T13:24:43.918Z,79.36
2023-01-26T13:27:33.070Z,79.13
2023-01-26T13:30:02.096Z,79.39
2023-01-26T13:33:05.852Z,79.31
2023-01-26T13:35:37.154Z,79.42
2023-01-26T13:38:15.515Z,79.12
2023-01-26T13:40:46.529Z,79.17
2023-01-26T13:43:27.126Z,79.00
2023-01-26T13:46:10.761Z,79.13
2023-01-26T13:48:47.877Z,79.06
2023-01-26T13:51:23.427Z,79.13
2023-01-26T13:53:59.221Z,78.73
2023-01-26T13:56:31.492Z,79.11
2023-01-26T13:59:22.923Z,79.14
2023-01-26T14:01:53.433Z,79.28
2023-01-26T14:04:51.876Z,78.88
2023-01-26T14:07:23.560Z,78.99
2023-01-26T14:09:53.553Z,78.71
2023-01-26T14:12:25.227Z,79.16
2023-01-26T14:14:56.624Z,79.26
2023-01-26T14:17:27.938Z,79.39
2023-01-26T14:19:57.117Z,79.07
2023-01-26T14:22:27.197Z,79.50
2023-01-26T14:24:55.863Z,79.48
2023-01-26T14:27:38.102Z,79.27
2023-01-26T14:30:26.685Z,79.74
2023-01-26T14:33:05.491Z,79.40
2023-01-26T14:35:34.658Z,79.70
2023-01-26T14:38:15.947Z,79.69
2023-01-26T14:40:51.306Z,79.46
2023-01-26T14:43:20.338Z,79.92
2023-01-26T14:45:52.183Z,79.94
2023-01-26T14:48:24.495Z,79.91
2023-01-26T14:50:53.475Z,79.49
2023-01-26T14:53:25.681Z,79.46
2023-01-26T14:55:54.913Z,79.31
2023-01-26T14:58:26.677Z,79.57
2023-01-26T15:00:58.263Z,79.83
2023-01-26T15:03:30.455Z,79.87
2023-01-26T15:06:08.368Z,79.82
2023-01-26T15:08:40.389Z,80.00
2023-01-26T15:11:27.421Z,79.68
2023-01-26T15:13:57.037Z,79.65
2023-01-26T15:16:27.016Z,80.02
2023-01-26T15:19:00.950Z,79.71
2023-01-26T15:21:34.764Z,80.06
2023-01-26T15:24:05.685Z,80.21
2023-01-26T15:26:36.451Z,80.27
2023-01-26T15:29:07.714Z,80.01
2023-01-26T15:31:38.736Z,80.02
2023-01-26T15:34:28.184Z,79.78
2023-01-26T15:36:58.749Z,80.05
2023-01-26T15:39:27.385Z,79.96
2023-01-26T15:42:15.795Z,80.20
2023-01-26T15:44:44.219Z,79.88
2023-01-26T15:47:13.900Z,80.20
2023-01-26T15:49:43.069Z,80.15
2023-01-26T15:52:15.340Z,80.21
2023-01-26T15:54:44.080Z,79.71
2023-01-26T15:57:13.509Z,80.05
2023-01-26T15:59:42.627Z,80.29
2023-01-26T16:02:15.105Z,79.87
2023-01-26T16:04:43.828Z,80.12
2023-01-26T16:07:15.675Z,80.12
2023-01-26T16:09:54.019Z,80.02
2023-01-26T16:12:31.833Z,80.57
2023-01-26T16:15:00.920Z,80.12
2023-01-26T16:17:29.529Z,80.04
2023-01-26T16:19:57.975Z,80.17
2023-01-26T16:22:27.844Z,80.13
2023-01-26T16:24:56.243Z,80.21
2023-01-26T16:27:24.614Z,80.20
2023-01-26T16:29:53.209Z,79.81
2023-01-26T16:32:28.766Z,79.75
2023-01-26T16:34:57.259Z,79.73
2023-01-26T16:37:27.080Z,80.03
2023-01-26T16:39:55.548Z,79.71
2023-01-26T16:42:24.244Z,79.64
2023-01-26T16:44:52.709Z,80.00
2023-01-26T16:47:21.163Z,79.90
2023-01-26T16:49:49.645Z,79.66
2023-01-26T16:52:20.531Z,80.16
2023-01-26T16:54:50.241Z,79.86
2023-01-26T16:57:18.567Z,79.70
2023-01-26T16:59:47.135Z,80.10
2023-01-26T17:02:25.577Z,80.12
2023-01-26T17:04:57.191Z,80.08
2023-01-26T17:07:25.702Z,80.01
2023-01-26T17:09:55.901Z,79.88
2023-01-26T17:12:24.353Z,79.88
2023-01-26T17:14:53.101Z,79.98
2023-01-26T17:17:21.655Z,80.14
2023-01-26T17:19:50.083Z,80.14
2023-01-26T17:22:18.649Z,80.12
2023-01-26T17:24:47.224Z,79.94
2023-01-26T17:27:17.690Z,79.82
2023-01-26T17:29:46.553Z,80.19
2023-01-26T17:32:15.916Z,80.08
2023-01-26T17:34:44.602Z,79.90
2023-01-26T17:37:13.047Z,79.88
2023-01-26T17:39:41.467Z,79.85
2023-01-26T17:42:09.967Z,79.69
2023-01-26T17:44:40.089Z,79.52
2023-01-26T17:47:09.390Z,79.53
2023-01-26T17:49:37.925Z,79.46
2023-01-26T17:52:08.236Z,79.69
2023-01-26T17:54:36.688Z,79.89
2023-01-26T17:57:05.227Z,80.00
2023-01-26T17:59:33.593Z,79.69
2023-01-26T18:02:03.470Z,79.99
2023-01-26T18:04:33.228Z,80.00
2023-01-26T18:07:02.745Z,79.63
2023-01-26T18:09:31.326Z,79.82
2023-01-26T18:11:59.760Z,80.03
2023-01-26T18:14:28.370Z,79.99
2023-01-26T18:16:56.953Z,79.68
2023-01-26T18:19:27.189Z,79.87
2023-01-26T18:21:55.645Z,79.82
2023-01-26T18:24:24.153Z,79.86
2023-01-26T18:26:52.606Z,79.95
2023-01-26T18:29:21.040Z,79.94
2023-01-26T18:31:49.696Z,79.51
2023-01-26T18:34:18.205Z,79.70
2023-01-26T18:36:48.061Z,79.93
2023-01-26T18:39:16.977Z,79.81
2023-01-26T18:41:45.430Z,79.83
2023-01-26T18:44:13.930Z,79.72
2023-01-26T18:46:42.450Z,80.07
2023-01-26T18:49:11.307Z,79.96
2023-01-26T18:51:39.873Z,79.76
2023-01-26T18:54:09.686Z,79.82
2023-01-26T18:56:38.309Z,79.64
2023-01-26T18:59:09.577Z,79.72
2023-01-26T19:01:38.638Z,79.63
2023-01-26T19:04:07.579Z,79.83
2023-01-26T19:06:36.675Z,79.72
2023-01-26T19:09:07.451Z,79.62
2023-01-26T19:11:38.828Z,79.90
2023-01-26T19:14:08.407Z,79.73
2023-01-26T19:16:37.239Z,79.60
2023-01-26T19:19:06.150Z,79.73
2023-01-26T19:21:34.703Z,79.85
2023-01-26T19:24:06.128Z,80.30
2023-01-26T19:26:35.217Z,79.96
2023-01-26T19:29:05.528Z,79.98
2023-01-26T19:31:36.043Z,79.86
2023-01-26T19:34:07.639Z,79.94
2023-01-26T19:36:37.531Z,79.93
2023-01-26T19:39:07.299Z,79.83
2023-01-26T19:41:36.241Z,79.88
2023-01-26T19:44:06.522Z,79.92
2023-01-26T19:46:35.082Z,79.77
2023-01-26T19:49:03.596Z,79.95
2023-01-26T19:51:33.049Z,80.18
2023-01-26T19:54:01.442Z,79.89
2023-01-26T19:56:31.799Z,79.81
2023-01-26T19:59:02.109Z,80.11
2023-01-26T20:01:32.741Z,80.30
2023-01-26T20:04:03.068Z,80.07
2023-01-26T20:06:33.348Z,80.16
2023-01-26T20:09:03.578Z,79.92
2023-01-26T20:11:32.109Z,79.89
2023-01-26T20:14:02.353Z,79.69
2023-01-26T20:16:34.326Z,79.84
2023-01-26T20:19:03.333Z,80.22
2023-01-26T20:21:32.407Z,79.94
2023-01-26T20:24:05.553Z,79.74
2023-01-26T20:26:36.031Z,79.99
2023-01-26T20:29:04.677Z,80.01
2023-01-26T20:31:34.826Z,79.97
2023-01-26T20:34:03.287Z,80.07
2023-01-26T20:36:34.131Z,80.03
2023-01-26T20:39:02.570Z,80.00
2023-01-26T20:41:32.845Z,80.23
2023-01-26T20:44:02.769Z,80.29
2023-01-26T20:46:34.612Z,80.29
2023-01-26T20:49:12.104Z,79.93
2023-01-26T20:51:42.681Z,80.06
2023-01-26T20:54:17.117Z,80.08
2023-01-26T20:56:46.843Z,80.07
2023-01-26T20:59:15.279Z,80.18
2023-01-26T21:01:43.943Z,80.23
2023-01-26T21:04:13.852Z,79.98
2023-01-26T21:06:42.322Z,80.03
2023-01-26T21:09:12.736Z,80.17
2023-01-26T21:11:41.620Z,79.99
2023-01-26T21:14:13.101Z,80.24
2023-01-26T21:16:41.756Z,79.98
2023-01-26T21:19:13.546Z,80.09
2023-01-26T21:21:41.929Z,79.78
2023-01-26T21:24:11.164Z,79.73
2023-01-26T21:26:39.583Z,79.75
2023-01-26T21:29:08.345Z,80.06
2023-01-26T21:31:36.833Z,79.98
2023-01-26T21:34:05.250Z,80.03
2023-01-26T21:36:39.103Z,79.99
2023-01-26T21:39:10.809Z,79.99
2023-01-26T21:41:57.580Z,80.10
2023-01-26T21:44:27.772Z,79.90
2023-01-26T21:46:59.309Z,79.77
2023-01-26T21:49:28.528Z,80.03
2023-01-26T21:52:16.764Z,79.89
2023-01-26T21:54:49.025Z,79.78
2023-01-26T21:57:34.676Z,80.21
2023-01-26T22:00:03.211Z,79.76
2023-01-26T22:02:34.756Z,79.98
2023-01-26T22:05:03.198Z,80.22
2023-01-26T22:07:34.386Z,80.40
2023-01-26T22:10:05.997Z,80.21
2023-01-26T22:12:34.452Z,80.00
2023-01-26T22:15:02.936Z,80.15
2023-01-26T22:17:31.345Z,80.44
2023-01-26T22:19:59.674Z,80.65
2023-01-26T22:22:28.120Z,80.61
2023-01-26T22:24:57.887Z,80.47
2023-01-26T22:27:26.226Z,80.08
2023-01-26T22:29:54.554Z,80.33
2023-01-26T22:32:23.162Z,80.12
2023-01-26T22:34:51.618Z,80.18
2023-01-26T22:37:20.058Z,80.13
2023-01-26T22:39:49.027Z,80.32
2023-01-26T22:42:19.965Z,80.22
2023-01-26T22:44:48.456Z,80.52
2023-01-26T22:47:16.957Z,80.27
2023-01-26T22:49:47.982Z,80.04
2023-01-26T22:52:16.456Z,80.52
2023-01-26T22:54:46.487Z,79.98
2023-01-26T22:57:14.911Z,80.49
2023-01-26T22:59:45.320Z,80.40
2023-01-26T23:02:13.914Z,80.53
2023-01-26T23:04:44.248Z,80.42
2023-01-26T23:07:15.571Z,80.08
2023-01-26T23:09:45.279Z,80.01
2023-01-26T23:12:14.664Z,80.00
2023-01-26T23:14:44.606Z,80.10
2023-01-26T23:17:13.114Z,80.19
2023-01-26T23:19:41.887Z,80.27
2023-01-26T23:22:11.876Z,80.32
2023-01-26T23:24:40.300Z,80.53
2023-01-26T23:27:09.292Z,80.42
2023-01-26T23:29:41.745Z,80.96
2023-01-26T23:32:14.307Z,80.63
2023-01-26T23:34:42.763Z,81.05
2023-01-26T23:37:11.335Z,80.54
2023-01-26T23:39:39.747Z,80.63
2023-01-26T23:42:18.369Z,80.61
2023-01-26T23:44:49.156Z,80.63
2023-01-26T23:47:19.797Z,80.56
2023-01-26T23:49:48.496Z,80.58
2023-01-26T23:52:17.964Z,80.49
2023-01-26T23:54:46.374Z,80.25
2023-01-26T23:57:14.946Z,80.19
2023-01-26T23:59:43.333Z,80.26
